Time;durP1;ratioP1;P1;durP2;ratioP2;P2;SDS_P1;SDS_P2;PMS_P1;PMS_P2;Temp;Humidity;BMP_temperature;BMP_pressure;BME280_temperature;BME280_humidity;BME280_pressure;Samples;Min_cycle;Max_cycle;Signal;HPM_P1;HPM_P2
2023/10/06 00:00:50;;;;;;;12.90;7.00;;;14.20;99.90;;;;;;5001737;28;20185;-70
2023/10/06 00:03:16;;;;;;;11.70;6.93;;;14.20;99.90;;;;;;4996832;28;20205;-71
2023/10/06 00:05:48;;;;;;;12.27;7.03;;;14.20;99.90;;;;;;4994585;28;20439;-70
2023/10/06 00:08:31;;;;;;;11.27;7.13;;;14.20;99.90;;;;;;4999049;28;20482;-70
2023/10/06 00:11:10;;;;;;;15.03;7.47;;;14.20;99.90;;;;;;4996309;28;20420;-70
2023/10/06 00:13:37;;;;;;;13.83;6.63;;;14.10;99.90;;;;;;4997140;28;21001;-70
2023/10/06 00:16:05;;;;;;;14.27;6.70;;;14.10;99.90;;;;;;4997870;28;20516;-69
2023/10/06 00:18:35;;;;;;;13.33;6.93;;;14.10;99.90;;;;;;5005109;28;20425;-70
2023/10/06 00:21:06;;;;;;;11.13;7.00;;;14.10;99.90;;;;;;5001702;28;20419;-70
2023/10/06 00:23:38;;;;;;;9.10;5.73;;;14.10;99.90;;;;;;4999126;28;20459;-70
2023/10/06 00:26:08;;;;;;;12.43;6.50;;;14.10;99.90;;;;;;4999057;28;20428;-70
2023/10/06 00:28:36;;;;;;;11.27;7.50;;;14.00;99.90;;;;;;5003026;28;20467;-70
2023/10/06 00:31:08;;;;;;;8.77;6.20;;;14.00;99.90;;;;;;5002031;28;20551;-69
2023/10/06 00:33:37;;;;;;;10.40;6.53;;;14.00;99.90;;;;;;4996403;28;20491;-70
2023/10/06 00:36:16;;;;;;;13.00;6.97;;;14.00;99.90;;;;;;5006147;28;20420;-70
2023/10/06 00:38:47;;;;;;;10.23;6.07;;;14.00;99.90;;;;;;5001252;28;20424;-70
2023/10/06 00:41:15;;;;;;;13.50;7.67;;;14.00;99.90;;;;;;4995916;28;20486;-70
2023/10/06 00:43:43;;;;;;;11.37;6.27;;;13.90;99.90;;;;;;5003253;28;20460;-69
2023/10/06 00:46:10;;;;;;;9.73;6.57;;;13.90;99.90;;;;;;5000263;28;20428;-69
2023/10/06 00:48:44;;;;;;;11.03;6.60;;;13.90;99.90;;;;;;5002067;28;20459;-69
2023/10/06 00:51:22;;;;;;;8.93;5.63;;;13.80;99.90;;;;;;4999970;28;20428;-70
2023/10/06 00:53:51;;;;;;;13.60;6.13;;;13.80;99.90;;;;;;4999611;28;20548;-69
2023/10/06 00:56:23;;;;;;;9.13;5.00;;;13.80;99.90;;;;;;5002002;28;20428;-70
2023/10/06 00:58:49;;;;;;;13.13;5.30;;;13.80;99.90;;;;;;4998299;28;20425;-69
2023/10/06 01:01:17;;;;;;;10.20;6.30;;;13.80;99.90;;;;;;5002559;28;20428;-69
2023/10/06 01:03:49;;;;;;;14.17;6.97;;;13.80;99.90;;;;;;4998226;28;20451;-69
2023/10/06 01:06:23;;;;;;;8.83;5.90;;;13.80;99.90;;;;;;4997270;28;20518;-69
2023/10/06 01:08:55;;;;;;;12.80;5.73;;;13.70;99.90;;;;;;5000619;28;20533;-69
2023/10/06 01:11:26;;;;;;;10.53;5.23;;;13.70;99.90;;;;;;4993795;28;20440;-69
2023/10/06 01:13:55;;;;;;;11.27;5.10;;;13.70;99.90;;;;;;5001647;28;20455;-69
2023/10/06 01:16:26;;;;;;;9.57;5.20;;;13.70;99.90;;;;;;4997434;28;20432;-69
2023/10/06 01:18:52;;;;;;;13.83;6.00;;;13.60;99.90;;;;;;4994305;28;20428;-69
2023/10/06 01:21:28;;;;;;;8.40;4.97;;;13.60;99.90;;;;;;5000302;28;20428;-69
2023/10/06 01:23:58;;;;;;;9.23;5.10;;;13.60;99.90;;;;;;4995357;28;20455;-69
2023/10/06 01:26:24;;;;;;;10.40;5.67;;;13.50;99.90;;;;;;4996814;28;20435;-71
2023/10/06 01:28:51;;;;;;;11.87;5.80;;;13.50;99.90;;;;;;4995933;28;20566;-70
2023/10/06 01:31:19;;;;;;;9.27;5.50;;;13.50;99.90;;;;;;5001155;28;20431;-70
2023/10/06 01:33:45;;;;;;;8.70;5.60;;;13.50;99.90;;;;;;4999317;28;20475;-70
2023/10/06 01:36:13;;;;;;;9.83;5.17;;;13.40;99.90;;;;;;5000569;28;20914;-69
2023/10/06 01:38:43;;;;;;;9.30;5.33;;;13.40;99.90;;;;;;4999984;28;20790;-68
2023/10/06 01:41:11;;;;;;;10.83;5.50;;;13.40;99.90;;;;;;4997724;28;20461;-69
2023/10/06 01:43:38;;;;;;;9.37;5.80;;;13.30;99.90;;;;;;5002821;28;20446;-69
2023/10/06 01:46:07;;;;;;;7.90;5.70;;;13.30;99.90;;;;;;5000945;28;20467;-69
2023/10/06 01:48:33;;;;;;;13.17;6.37;;;13.30;99.90;;;;;;4997240;28;20460;-69
2023/10/06 01:50:59;;;;;;;11.30;6.37;;;13.30;99.90;;;;;;5003568;28;20459;-69
2023/10/06 01:53:25;;;;;;;8.37;5.20;;;13.20;99.90;;;;;;4996585;28;20476;-69
2023/10/06 01:55:56;;;;;;;10.67;5.77;;;13.20;99.90;;;;;;4998242;28;20555;-69
2023/10/06 01:58:22;;;;;;;13.13;6.10;;;13.20;99.90;;;;;;4995529;28;20522;-69
2023/10/06 02:00:48;;;;;;;15.13;6.23;;;13.10;99.90;;;;;;4998406;28;20515;-69
2023/10/06 02:03:18;;;;;;;8.57;5.33;;;13.10;99.90;;;;;;4999425;28;20201;-69
2023/10/06 02:05:44;;;;;;;9.70;5.33;;;13.10;99.90;;;;;;4997597;28;20439;-69
2023/10/06 02:08:10;;;;;;;8.83;6.50;;;13.20;99.90;;;;;;5000410;28;20478;-69
2023/10/06 02:10:42;;;;;;;7.93;5.43;;;13.10;99.90;;;;;;4999812;28;20523;-69
2023/10/06 02:13:07;;;;;;;13.30;5.80;;;13.10;99.90;;;;;;4997380;28;20447;-69
2023/10/06 02:15:33;;;;;;;11.40;5.70;;;13.10;99.90;;;;;;5001004;28;20433;-69
2023/10/06 02:17:59;;;;;;;11.40;5.90;;;13.00;99.90;;;;;;4997782;28;20773;-69
2023/10/06 02:23:04;;;;;;;15.93;5.63;;;13.00;99.90;;;;;;4994071;28;20209;-68
2023/10/06 02:25:29;;;;;;;12.00;6.10;;;13.00;99.90;;;;;;4996442;28;20182;-69
2023/10/06 02:27:56;;;;;;;10.27;6.03;;;13.00;99.90;;;;;;4993921;28;20534;-69
2023/10/06 02:30:41;;;;;;;11.50;6.80;;;13.00;99.90;;;;;;4996418;28;20204;-69
2023/10/06 02:33:07;;;;;;;8.10;5.67;;;12.90;99.90;;;;;;4995247;28;20483;-69
2023/10/06 02:35:43;;;;;;;11.37;6.30;;;12.90;99.90;;;;;;4998002;28;20460;-69
2023/10/06 02:38:09;;;;;;;9.33;6.07;;;12.90;99.90;;;;;;4998138;28;20594;-69
2023/10/06 02:40:43;;;;;;;11.97;6.67;;;12.80;99.90;;;;;;4992152;28;20525;-69
2023/10/06 02:43:16;;;;;;;9.30;5.60;;;12.80;99.90;;;;;;5000960;28;20219;-70
2023/10/06 02:45:42;;;;;;;12.57;5.80;;;12.80;99.90;;;;;;4999936;28;20569;-70
2023/10/06 02:48:23;;;;;;;11.73;6.13;;;12.80;99.90;;;;;;5001076;28;20474;-70
2023/10/06 02:50:55;;;;;;;8.90;5.53;;;12.80;99.90;;;;;;4995982;28;20200;-70
2023/10/06 02:53:23;;;;;;;10.30;5.30;;;12.80;99.90;;;;;;4994654;28;21040;-70
2023/10/06 02:55:55;;;;;;;7.83;5.30;;;12.80;99.90;;;;;;4998759;28;20447;-70
2023/10/06 02:58:30;;;;;;;11.40;5.10;;;12.70;99.90;;;;;;4999034;28;20526;-70
2023/10/06 03:00:57;;;;;;;6.10;4.53;;;12.70;99.90;;;;;;4999463;28;20424;-70
2023/10/06 03:03:33;;;;;;;7.80;5.00;;;12.60;99.90;;;;;;4996825;28;20949;-70
2023/10/06 03:06:00;;;;;;;5.33;4.00;;;12.60;99.90;;;;;;4999336;28;20725;-69
2023/10/06 03:08:27;;;;;;;5.87;4.83;;;12.70;99.90;;;;;;4997026;28;20985;-69
2023/10/06 03:10:53;;;;;;;4.77;4.13;;;12.50;99.90;;;;;;4995925;28;20429;-69
2023/10/06 03:13:43;;;;;;;7.07;4.20;;;12.40;99.90;;;;;;4998712;28;20499;-70
2023/10/06 03:16:12;;;;;;;5.73;5.00;;;12.40;99.90;;;;;;4999272;28;20173;-70
2023/10/06 03:18:38;;;;;;;4.60;3.83;;;12.30;99.90;;;;;;4999479;28;20432;-69
2023/10/06 03:21:15;;;;;;;6.70;4.80;;;12.20;99.90;;;;;;4996001;28;20486;-69
2023/10/06 03:23:45;;;;;;;5.90;5.10;;;12.20;99.90;;;;;;4997648;28;20464;-70
2023/10/06 03:28:52;;;;;;;5.00;4.50;;;12.20;99.90;;;;;;4997351;28;20602;-69
2023/10/06 03:33:48;;;;;;;7.20;5.00;;;12.20;99.90;;;;;;4996652;28;20441;-69
2023/10/06 03:36:16;;;;;;;5.80;4.70;;;12.20;99.90;;;;;;4998905;28;20424;-69
2023/10/06 03:38:56;;;;;;;7.40;4.83;;;12.10;99.90;;;;;;4995307;28;20440;-70
2023/10/06 03:41:31;;;;;;;6.43;4.83;;;12.10;99.90;;;;;;4999576;28;20459;-69
2023/10/06 03:44:00;;;;;;;7.60;5.67;;;12.20;99.90;;;;;;4995604;28;20927;-69
2023/10/06 03:46:31;;;;;;;7.20;6.07;;;12.10;99.90;;;;;;4999853;28;20450;-69
2023/10/06 03:49:03;;;;;;;12.80;9.40;;;12.10;99.90;;;;;;5003836;28;20458;-69
2023/10/06 03:51:33;;;;;;;7.73;5.77;;;12.00;99.90;;;;;;5006713;28;20427;-69
2023/10/06 03:53:59;;;;;;;8.73;6.20;;;12.00;99.90;;;;;;5007701;28;20919;-70
2023/10/06 03:56:25;;;;;;;12.10;7.30;;;11.90;99.90;;;;;;5010141;28;20516;-69
2023/10/06 03:58:51;;;;;;;9.63;6.17;;;11.90;99.90;;;;;;5008177;28;20582;-69
2023/10/06 04:01:20;;;;;;;9.93;5.40;;;11.80;99.90;;;;;;5008117;28;22118;-69
2023/10/06 04:03:46;;;;;;;7.70;6.10;;;11.80;99.90;;;;;;5005969;28;20582;-69
2023/10/06 04:06:15;;;;;;;10.13;7.00;;;11.80;99.90;;;;;;5003265;28;20428;-69
2023/10/06 04:08:44;;;;;;;9.70;5.60;;;11.70;99.90;;;;;;5009699;28;20490;-70
2023/10/06 04:11:13;;;;;;;7.87;4.93;;;11.70;99.90;;;;;;5004511;28;20429;-70
2023/10/06 04:13:39;;;;;;;8.40;4.23;;;11.70;99.90;;;;;;5009917;28;20455;-70
2023/10/06 04:16:04;;;;;;;7.90;4.30;;;11.70;99.90;;;;;;5022585;28;20535;-70
2023/10/06 04:18:32;;;;;;;9.53;4.90;;;11.50;99.90;;;;;;5006909;28;20277;-70
2023/10/06 04:20:58;;;;;;;6.30;4.10;;;11.50;99.90;;;;;;5007849;28;20213;-70
2023/10/06 04:23:24;;;;;;;12.67;4.93;;;11.50;99.90;;;;;;5008009;28;20549;-70
2023/10/06 04:25:55;;;;;;;7.67;5.17;;;11.50;99.90;;;;;;5012773;28;20477;-69
2023/10/06 04:28:22;;;;;;;11.33;5.90;;;11.50;99.90;;;;;;5009796;28;20204;-70
2023/10/06 04:30:49;;;;;;;7.83;5.47;;;11.60;99.90;;;;;;5010794;28;20992;-70
2023/10/06 04:33:16;;;;;;;15.47;6.77;;;11.60;99.90;;;;;;5002820;28;20465;-70
2023/10/06 04:35:55;;;;;;;17.40;7.70;;;11.60;99.90;;;;;;5005062;28;20432;-69
2023/10/06 04:38:21;;;;;;;16.33;7.87;;;11.70;99.90;;;;;;5012488;28;20427;-69
2023/10/06 04:40:48;;;;;;;63.37;10.57;;;11.70;99.90;;;;;;5002765;28;20427;-69
2023/10/06 04:43:14;;;;;;;56.67;10.87;;;11.60;99.90;;;;;;5010023;28;23087;-69
2023/10/06 04:45:39;;;;;;;31.20;9.97;;;11.50;99.90;;;;;;5007235;28;20475;-69
2023/10/06 04:48:09;;;;;;;67.07;9.93;;;11.40;99.90;;;;;;5006861;28;20301;-71
2023/10/06 04:50:35;;;;;;;42.37;9.47;;;11.40;99.90;;;;;;5009286;28;20236;-69
2023/10/06 04:53:01;;;;;;;25.77;9.07;;;11.50;99.90;;;;;;5010787;28;20460;-71
2023/10/06 04:55:31;;;;;;;27.73;8.13;;;11.50;99.90;;;;;;5012676;28;20424;-69
2023/10/06 04:57:57;;;;;;;20.60;8.30;;;11.40;99.90;;;;;;5008148;28;20434;-69
2023/10/06 05:00:23;;;;;;;21.03;8.57;;;11.30;99.90;;;;;;5008182;28;20423;-70
2023/10/06 05:02:52;;;;;;;17.60;8.03;;;11.30;99.90;;;;;;5004674;28;20268;-70
2023/10/06 05:05:21;;;;;;;15.00;7.53;;;11.40;99.90;;;;;;5006447;28;21240;-70
2023/10/06 05:07:48;;;;;;;12.57;6.73;;;11.40;99.90;;;;;;5004827;28;20224;-69
2023/10/06 05:10:16;;;;;;;16.50;7.27;;;11.50;99.90;;;;;;5005117;28;20938;-69
2023/10/06 05:12:42;;;;;;;38.17;9.77;;;11.50;99.90;;;;;;5006519;28;20451;-69
2023/10/06 05:15:09;;;;;;;21.20;8.30;;;11.40;99.90;;;;;;5004151;28;20413;-69
2023/10/06 05:17:36;;;;;;;20.60;9.07;;;11.40;99.90;;;;;;5004426;28;20460;-69
2023/10/06 05:20:03;;;;;;;17.40;7.83;;;11.50;99.90;;;;;;4999249;28;20460;-69
2023/10/06 05:22:29;;;;;;;21.37;8.10;;;11.50;99.90;;;;;;4995480;28;20464;-69
2023/10/06 05:24:55;;;;;;;17.37;7.77;;;11.60;99.90;;;;;;5000376;28;20516;-69
2023/10/06 05:27:22;;;;;;;13.87;8.40;;;11.60;99.90;;;;;;4996988;28;20552;-69
2023/10/06 05:29:50;;;;;;;14.37;7.77;;;11.60;99.90;;;;;;4997998;28;20855;-69
2023/10/06 05:32:20;;;;;;;17.60;7.43;;;11.70;99.90;;;;;;4996167;28;20503;-69
2023/10/06 05:34:45;;;;;;;20.00;9.00;;;11.70;99.90;;;;;;4997877;28;20452;-69
2023/10/06 05:37:12;;;;;;;14.87;7.97;;;11.70;99.90;;;;;;5002150;28;20452;-69
2023/10/06 05:39:40;;;;;;;14.63;7.93;;;11.80;99.90;;;;;;4995861;28;20272;-69
2023/10/06 05:42:08;;;;;;;12.60;7.50;;;11.80;99.90;;;;;;5003000;28;20486;-69
2023/10/06 05:44:36;;;;;;;16.57;7.50;;;11.80;99.90;;;;;;5004910;28;20433;-70
2023/10/06 05:47:02;;;;;;;11.47;7.13;;;11.80;99.90;;;;;;5009386;28;20433;-70
2023/10/06 05:49:32;;;;;;;13.60;8.00;;;11.90;99.90;;;;;;5005745;28;20459;-70
2023/10/06 05:51:58;;;;;;;12.63;7.70;;;11.90;99.90;;;;;;4999815;28;20543;-70
2023/10/06 05:54:24;;;;;;;15.23;9.70;;;11.90;99.90;;;;;;5002668;28;20596;-70
2023/10/06 05:56:53;;;;;;;15.00;8.40;;;11.90;99.90;;;;;;5000183;28;20513;-70
2023/10/06 05:59:19;;;;;;;9.70;7.07;;;11.90;99.90;;;;;;5008599;28;20182;-69
2023/10/06 06:01:46;;;;;;;13.77;7.90;;;12.00;99.90;;;;;;5007837;28;20448;-69
2023/10/06 06:04:12;;;;;;;12.30;7.60;;;12.00;99.90;;;;;;5007267;28;20425;-70
2023/10/06 06:06:38;;;;;;;10.50;7.60;;;12.00;99.90;;;;;;5008026;28;20485;-69
2023/10/06 06:09:14;;;;;;;11.30;7.67;;;11.90;99.90;;;;;;5006815;28;20212;-69
2023/10/06 06:11:40;;;;;;;11.90;8.23;;;11.90;99.90;;;;;;4999086;28;20428;-69
2023/10/06 06:14:06;;;;;;;8.90;6.70;;;11.90;99.90;;;;;;5001976;28;21166;-70
2023/10/06 06:16:31;;;;;;;10.83;6.80;;;11.90;99.90;;;;;;5003810;28;20688;-70
2023/10/06 06:18:57;;;;;;;11.73;8.00;;;11.80;99.90;;;;;;5022597;28;20193;-70
2023/10/06 06:21:24;;;;;;;11.93;8.23;;;11.80;99.90;;;;;;4996856;28;20452;-70
2023/10/06 06:23:51;;;;;;;10.57;7.93;;;11.80;99.90;;;;;;5000413;28;21108;-70
2023/10/06 06:26:17;;;;;;;14.20;8.97;;;11.80;99.90;;;;;;5003570;28;20439;-70
2023/10/06 06:28:43;;;;;;;12.17;7.90;;;11.90;99.90;;;;;;5001842;28;20455;-70
2023/10/06 06:31:18;;;;;;;11.97;7.93;;;11.90;99.90;;;;;;5002981;28;20443;-70
2023/10/06 06:33:44;;;;;;;17.00;8.30;;;12.00;99.90;;;;;;4999455;28;20492;-70
2023/10/06 06:36:09;;;;;;;15.97;8.70;;;12.00;99.90;;;;;;4987922;28;20464;-70
2023/10/06 06:38:39;;;;;;;12.63;8.40;;;12.00;99.90;;;;;;4997773;28;20198;-71
2023/10/06 06:41:05;;;;;;;13.30;8.83;;;12.00;99.90;;;;;;5002244;28;20181;-70
2023/10/06 06:43:31;;;;;;;16.50;8.83;;;12.00;99.90;;;;;;4996044;28;20462;-69
2023/10/06 06:45:58;;;;;;;15.53;8.20;;;11.90;99.90;;;;;;4996598;28;20961;-69
2023/10/06 06:48:24;;;;;;;14.93;8.73;;;11.90;99.90;;;;;;5001034;28;20223;-70
2023/10/06 06:50:52;;;;;;;16.23;8.97;;;11.90;99.90;;;;;;4998446;28;20446;-70
2023/10/06 06:53:18;;;;;;;13.53;9.00;;;12.00;99.90;;;;;;4993680;28;20904;-71
2023/10/06 06:55:45;;;;;;;18.87;8.20;;;11.80;99.90;;;;;;5000918;28;20501;-70
2023/10/06 06:58:11;;;;;;;15.10;7.73;;;11.70;99.90;;;;;;5004120;28;20529;-70
2023/10/06 07:00:41;;;;;;;13.83;7.30;;;11.70;99.90;;;;;;5003375;28;20947;-69
2023/10/06 07:03:07;;;;;;;15.00;7.33;;;11.70;99.90;;;;;;4997780;28;20452;-69
2023/10/06 07:05:35;;;;;;;11.03;7.37;;;11.80;99.90;;;;;;4998992;28;20434;-69
2023/10/06 07:08:03;;;;;;;11.03;7.10;;;11.70;99.90;;;;;;5000682;28;20303;-70
2023/10/06 07:10:29;;;;;;;10.73;6.87;;;11.80;99.90;;;;;;4998989;28;20435;-71
2023/10/06 07:12:58;;;;;;;10.00;6.33;;;11.80;99.90;;;;;;5002500;28;20964;-69
2023/10/06 07:15:24;;;;;;;9.60;5.13;;;11.80;99.90;;;;;;4999933;28;20958;-71
2023/10/06 07:17:54;;;;;;;9.73;6.40;;;11.80;99.90;;;;;;5001941;28;20466;-69
2023/10/06 07:20:24;;;;;;;8.97;6.70;;;11.80;99.90;;;;;;5000419;28;20937;-70
2023/10/06 07:22:54;;;;;;;7.57;5.93;;;11.80;99.90;;;;;;4998836;28;20448;-69
2023/10/06 07:25:23;;;;;;;10.07;6.73;;;11.70;99.90;;;;;;5003648;28;20511;-69
2023/10/06 07:27:50;;;;;;;10.70;6.10;;;11.70;99.90;;;;;;5003363;28;20508;-71
2023/10/06 07:30:16;;;;;;;7.40;5.57;;;11.70;99.90;;;;;;5000944;28;20489;-70
2023/10/06 07:32:43;;;;;;;8.43;5.77;;;11.70;99.90;;;;;;5004914;28;20454;-69
2023/10/06 07:35:13;;;;;;;6.80;5.13;;;11.80;99.90;;;;;;5002143;28;20432;-69
2023/10/06 07:37:45;;;;;;;8.07;5.70;;;11.80;99.90;;;;;;4999891;28;20487;-69
2023/10/06 07:40:18;;;;;;;8.30;5.40;;;11.80;99.90;;;;;;5002431;28;21012;-69
2023/10/06 07:42:46;;;;;;;10.70;7.23;;;11.80;99.90;;;;;;5000174;28;20452;-69
2023/10/06 07:45:12;;;;;;;9.83;5.70;;;11.80;99.90;;;;;;4999665;28;20489;-69
2023/10/06 07:47:39;;;;;;;8.90;5.47;;;11.80;99.90;;;;;;5002911;28;20555;-68
2023/10/06 07:50:07;;;;;;;7.30;5.80;;;11.80;99.90;;;;;;5001923;28;20778;-69
2023/10/06 07:52:33;;;;;;;8.40;5.27;;;11.80;99.90;;;;;;5020073;28;20446;-69
2023/10/06 07:54:59;;;;;;;10.70;5.70;;;11.80;99.90;;;;;;5000494;28;20938;-69
2023/10/06 07:57:31;;;;;;;7.10;5.80;;;11.90;99.90;;;;;;5005580;28;20977;-69
2023/10/06 07:59:59;;;;;;;9.27;5.57;;;12.00;99.90;;;;;;5007103;28;20415;-70
2023/10/06 08:02:26;;;;;;;8.07;5.37;;;12.10;99.90;;;;;;5000392;28;20437;-68
2023/10/06 08:04:52;;;;;;;8.37;6.40;;;12.20;99.90;;;;;;4999075;28;20438;-68
2023/10/06 08:07:20;;;;;;;7.47;5.27;;;12.10;99.90;;;;;;5002568;28;20427;-69
2023/10/06 08:09:46;;;;;;;8.80;5.63;;;12.20;99.90;;;;;;5000170;28;20293;-68
2023/10/06 08:12:13;;;;;;;8.40;5.30;;;12.30;99.90;;;;;;4999348;28;20570;-69
2023/10/06 08:14:39;;;;;;;8.93;5.10;;;12.40;99.90;;;;;;4999058;28;20189;-68
2023/10/06 08:17:05;;;;;;;10.70;6.00;;;12.50;99.90;;;;;;5002667;28;20527;-69
2023/10/06 08:19:31;;;;;;;8.30;5.70;;;12.50;99.90;;;;;;4999653;28;20947;-69
2023/10/06 08:21:57;;;;;;;11.73;5.93;;;12.60;99.90;;;;;;4998863;28;20452;-68
2023/10/06 08:24:22;;;;;;;9.83;6.53;;;12.70;99.90;;;;;;4997896;28;20181;-69
2023/10/06 08:26:48;;;;;;;11.43;8.67;;;12.80;99.90;;;;;;5000654;28;20194;-69
2023/10/06 08:29:14;;;;;;;12.73;7.23;;;12.90;99.90;;;;;;4999523;28;20216;-69
2023/10/06 08:31:40;;;;;;;10.73;7.50;;;13.00;99.90;;;;;;5004769;28;20419;-69
2023/10/06 08:34:05;;;;;;;10.30;7.10;;;13.10;99.90;;;;;;4997184;28;20190;-69
2023/10/06 08:36:37;;;;;;;11.30;7.00;;;13.00;99.90;;;;;;5004724;28;20252;-68
2023/10/06 08:39:03;;;;;;;9.17;6.90;;;13.10;99.90;;;;;;5003403;28;20200;-69
2023/10/06 08:41:36;;;;;;;12.37;7.10;;;13.10;99.90;;;;;;5001044;28;20432;-69
2023/10/06 08:44:02;;;;;;;11.80;7.60;;;13.20;99.90;;;;;;4993705;28;20280;-70
2023/10/06 08:46:31;;;;;;;11.27;7.00;;;13.30;99.90;;;;;;5001867;28;20814;-69
2023/10/06 08:48:58;;;;;;;14.20;7.53;;;13.30;99.90;;;;;;5002732;28;21454;-69
2023/10/06 08:51:26;;;;;;;10.43;7.20;;;13.40;99.90;;;;;;4995815;28;20519;-70
2023/10/06 08:53:55;;;;;;;8.50;6.13;;;13.50;99.90;;;;;;5010297;28;20593;-69
2023/10/06 08:56:21;;;;;;;8.50;6.20;;;13.70;99.90;;;;;;5001768;28;20953;-70
2023/10/06 08:58:47;;;;;;;9.00;6.27;;;13.90;99.90;;;;;;5010087;28;20440;-70
2023/10/06 09:01:13;;;;;;;11.77;7.10;;;13.80;99.90;;;;;;5002636;28;21622;-69
2023/10/06 09:03:39;;;;;;;9.77;6.87;;;13.90;99.90;;;;;;5010085;28;20216;-69
2023/10/06 09:06:06;;;;;;;13.93;7.43;;;14.00;99.90;;;;;;5005007;28;20439;-70
2023/10/06 09:08:40;;;;;;;9.93;6.20;;;14.20;99.90;;;;;;4999126;28;20362;-69
2023/10/06 09:11:06;;;;;;;9.77;6.87;;;14.30;99.90;;;;;;5005288;28;20997;-69
2023/10/06 09:13:31;;;;;;;9.70;6.73;;;14.40;99.90;;;;;;5000752;28;20460;-69
2023/10/06 09:16:02;;;;;;;9.40;6.70;;;14.50;99.90;;;;;;5002113;28;20192;-68
2023/10/06 09:18:28;;;;;;;7.13;6.10;;;14.60;99.90;;;;;;5007870;28;20682;-68
2023/10/06 09:20:56;;;;;;;10.80;7.57;;;14.60;99.90;;;;;;5016857;28;20528;-68
2023/10/06 09:23:33;;;;;;;11.97;7.17;;;14.70;99.90;;;;;;4998476;28;20990;-68
2023/10/06 09:26:00;;;;;;;9.90;7.67;;;14.70;99.90;;;;;;5002013;28;20505;-68
2023/10/06 09:28:27;;;;;;;13.07;6.90;;;14.70;99.90;;;;;;5001315;28;20532;-68
2023/10/06 09:31:02;;;;;;;10.83;6.70;;;14.80;99.90;;;;;;5005436;28;20433;-67
2023/10/06 09:33:49;;;;;;;10.50;6.97;;;14.90;99.90;;;;;;5002595;28;20923;-69
2023/10/06 09:36:21;;;;;;;12.33;6.70;;;14.90;99.90;;;;;;5005373;28;21027;-70
2023/10/06 09:38:48;;;;;;;8.73;7.10;;;14.80;99.90;;;;;;4998866;28;20998;-68
2023/10/06 09:41:25;;;;;;;12.23;6.60;;;15.00;99.90;;;;;;5000954;28;20448;-68
2023/10/06 09:43:53;;;;;;;12.57;7.03;;;15.00;99.90;;;;;;4999820;28;20441;-68
2023/10/06 09:46:22;;;;;;;9.07;6.20;;;15.10;99.90;;;;;;4998806;28;21065;-69
2023/10/06 09:48:51;;;;;;;19.50;7.30;;;15.20;99.90;;;;;;4993642;28;20472;-69
2023/10/06 09:51:20;;;;;;;14.50;8.13;;;15.20;99.90;;;;;;4996238;28;20491;-68
2023/10/06 09:53:47;;;;;;;10.70;7.20;;;15.20;99.90;;;;;;4996468;28;20459;-69
2023/10/06 09:56:15;;;;;;;12.37;7.00;;;15.30;99.90;;;;;;4999464;28;20440;-70
2023/10/06 09:58:47;;;;;;;8.93;6.87;;;15.20;99.90;;;;;;5000329;28;20425;-69
2023/10/06 10:01:14;;;;;;;10.00;7.53;;;15.40;99.90;;;;;;4996595;28;20420;-68
2023/10/06 10:03:41;;;;;;;10.97;6.87;;;15.40;99.90;;;;;;4998148;28;20444;-68
2023/10/06 10:06:07;;;;;;;10.10;6.27;;;15.50;99.90;;;;;;5000710;28;20436;-69
2023/10/06 10:08:35;;;;;;;13.97;6.40;;;15.50;99.90;;;;;;5006391;28;20608;-70
2023/10/06 10:11:14;;;;;;;12.90;7.00;;;15.70;99.90;;;;;;5002173;28;20438;-68
2023/10/06 10:13:46;;;;;;;12.33;6.97;;;15.80;99.90;;;;;;5000811;28;20443;-67
2023/10/06 10:16:31;;;;;;;9.33;5.37;;;15.90;99.90;;;;;;4997578;28;20956;-67
2023/10/06 10:19:22;;;;;;;12.20;6.13;;;15.90;99.90;;;;;;5002933;28;20448;-68
2023/10/06 10:21:48;;;;;;;13.07;6.67;;;15.90;99.90;;;;;;5007527;28;20942;-68
2023/10/06 10:24:20;;;;;;;10.73;6.53;;;16.00;99.90;;;;;;5005382;28;20432;-68
2023/10/06 10:26:52;;;;;;;10.30;5.50;;;16.00;99.90;;;;;;5000650;28;20431;-68
2023/10/06 10:29:17;;;;;;;10.43;6.00;;;16.00;99.90;;;;;;4995512;28;20583;-68
2023/10/06 10:31:46;;;;;;;10.97;5.53;;;16.20;99.90;;;;;;4999359;28;21028;-69
2023/10/06 10:34:21;;;;;;;9.57;5.80;;;16.20;99.90;;;;;;4998517;28;20170;-68
2023/10/06 10:37:06;;;;;;;13.73;6.37;;;16.30;99.90;;;;;;5004131;28;20489;-68
2023/10/06 10:39:52;;;;;;;8.50;5.60;;;16.30;99.90;;;;;;4996329;28;20436;-69
2023/10/06 10:42:21;;;;;;;8.37;5.57;;;16.30;99.90;;;;;;5001924;28;20443;-70
2023/10/06 10:44:50;;;;;;;10.27;5.23;;;16.40;99.90;;;;;;4999064;28;20443;-69
2023/10/06 10:47:16;;;;;;;7.57;4.73;;;16.40;99.90;;;;;;4999869;28;20586;-68
2023/10/06 10:49:44;;;;;;;8.80;5.53;;;16.50;99.90;;;;;;5007400;28;20979;-68
2023/10/06 10:52:11;;;;;;;9.77;5.80;;;16.70;99.90;;;;;;4992949;28;20659;-68
2023/10/06 10:54:43;;;;;;;11.70;6.13;;;16.70;99.90;;;;;;5003924;28;20904;-67
2023/10/06 10:57:18;;;;;;;7.33;5.20;;;16.80;99.90;;;;;;5003444;28;20463;-63
2023/10/06 11:02:50;;;;;;;9.50;6.33;;;16.90;99.90;;;;;;5002621;28;20460;-63
2023/10/06 11:05:19;;;;;;;10.13;5.77;;;17.00;99.90;;;;;;5003820;28;20433;-62
2023/10/06 11:07:58;;;;;;;8.87;5.00;;;17.00;99.90;;;;;;5003707;28;20500;-63
2023/10/06 11:10:26;;;;;;;9.63;6.03;;;17.10;99.90;;;;;;5005039;28;20452;-63
2023/10/06 11:13:15;;;;;;;11.10;5.60;;;17.20;99.90;;;;;;5001575;28;20543;-64
2023/10/06 11:15:42;;;;;;;8.70;5.47;;;17.30;99.90;;;;;;4999201;28;20421;-61
2023/10/06 11:18:09;;;;;;;11.87;5.57;;;17.50;99.90;;;;;;5001870;28;20433;-62
2023/10/06 11:20:36;;;;;;;7.30;5.00;;;17.70;99.90;;;;;;5001659;28;20481;-62
2023/10/06 11:23:03;;;;;;;11.97;5.23;;;17.70;99.90;;;;;;5005701;28;20546;-62
2023/10/06 11:25:32;;;;;;;10.30;4.47;;;17.70;99.90;;;;;;5006074;28;20465;-62
2023/10/06 11:28:16;;;;;;;11.10;5.20;;;17.90;99.90;;;;;;5000008;28;20797;-62
2023/10/06 11:30:42;;;;;;;8.40;6.70;;;17.90;99.90;;;;;;4991556;28;20438;-62
2023/10/06 11:33:10;;;;;;;7.60;4.57;;;18.00;99.90;;;;;;4998402;28;20483;-62
2023/10/06 11:35:40;;;;;;;7.30;4.67;;;18.20;99.90;;;;;;5002919;28;20785;-64
2023/10/06 11:38:07;;;;;;;8.97;5.07;;;18.30;99.90;;;;;;4999693;28;20428;-67
2023/10/06 11:40:35;;;;;;;8.60;5.07;;;18.50;99.90;;;;;;4998424;28;20436;-67
2023/10/06 11:43:21;;;;;;;10.93;6.13;;;18.50;99.90;;;;;;4997994;28;20443;-67
2023/10/06 11:45:48;;;;;;;9.33;5.10;;;18.80;99.90;;;;;;5003268;28;20463;-67
2023/10/06 11:48:33;;;;;;;8.20;4.60;;;19.10;99.90;;;;;;5005265;28;20480;-67
2023/10/06 11:51:12;;;;;;;7.17;5.00;;;20.40;99.90;;;;;;5006675;28;20444;-67
2023/10/06 11:53:40;;;;;;;7.30;5.47;;;21.70;99.90;;;;;;4996801;28;20476;-68
2023/10/06 11:56:12;;;;;;;7.77;6.30;;;23.30;99.90;;;;;;4995350;28;20443;-68
2023/10/06 11:58:39;;;;;;;7.77;5.60;;;24.90;99.90;;;;;;5013856;28;20896;-67
2023/10/06 12:01:26;;;;;;;7.20;5.27;;;26.20;99.90;;;;;;4996329;28;20948;-67
2023/10/06 12:03:52;;;;;;;6.03;5.10;;;28.00;97.20;;;;;;4997546;28;20509;-68
2023/10/06 12:06:23;;;;;;;10.37;5.40;;;29.70;92.50;;;;;;4999546;28;20567;-67
2023/10/06 12:08:52;;;;;;;9.13;5.50;;;29.70;80.30;;;;;;4994666;28;20514;-67
2023/10/06 12:11:20;;;;;;;8.97;4.77;;;29.40;80.00;;;;;;4997148;28;20424;-67
2023/10/06 12:13:46;;;;;;;8.90;5.03;;;29.70;73.10;;;;;;5004815;28;20600;-67
2023/10/06 12:16:15;;;;;;;8.10;4.70;;;29.90;74.30;;;;;;5001315;28;20472;-67
2023/10/06 12:18:46;;;;;;;9.17;5.73;;;29.60;71.10;;;;;;5002886;28;20260;-66
2023/10/06 12:21:14;;;;;;;7.43;5.80;;;30.00;72.30;;;;;;5003794;28;20419;-66
2023/10/06 12:23:41;;;;;;;6.27;4.73;;;31.90;70.90;;;;;;4992687;28;20456;-66
2023/10/06 12:26:07;;;;;;;7.63;5.07;;;33.40;64.70;;;;;;4999408;28;20428;-66
2023/10/06 12:28:32;;;;;;;9.43;5.17;;;34.10;57.10;;;;;;4995665;28;20489;-66
2023/10/06 12:30:58;;;;;;;6.10;4.90;;;34.00;56.10;;;;;;4998990;28;20654;-66
2023/10/06 12:33:24;;;;;;;7.70;4.50;;;34.20;53.90;;;;;;5004062;28;20193;-67
2023/10/06 12:35:52;;;;;;;7.23;4.90;;;33.80;53.20;;;;;;5001339;28;20178;-67
2023/10/06 12:38:22;;;;;;;6.37;5.00;;;33.80;53.90;;;;;;4995823;28;20546;-66
2023/10/06 12:40:48;;;;;;;6.90;5.10;;;35.00;53.20;;;;;;5002339;28;20920;-67
2023/10/06 12:43:14;;;;;;;9.63;5.30;;;36.00;50.90;;;;;;5003596;28;20448;-67
2023/10/06 12:45:40;;;;;;;7.43;5.07;;;36.40;48.50;;;;;;4999874;28;20951;-67
2023/10/06 12:48:07;;;;;;;5.87;5.00;;;36.90;45.60;;;;;;4999481;28;20474;-68
2023/10/06 12:50:40;;;;;;;8.23;4.80;;;36.00;44.70;;;;;;4996980;28;20182;-66
2023/10/06 12:53:08;;;;;;;7.10;4.90;;;36.60;45.80;;;;;;4993972;28;20456;-66
2023/10/06 12:55:34;;;;;;;7.50;5.10;;;37.20;45.00;;;;;;4996434;28;20822;-66
2023/10/06 12:58:00;;;;;;;7.83;5.77;;;36.90;44.00;;;;;;4993865;28;20889;-67
2023/10/06 13:00:27;;;;;;;7.53;5.37;;;36.10;42.70;;;;;;4997964;28;20413;-66